sensor_id;sensor_type;location;lat;lon;timestamp;pressure;altitude;pressure_sealevel;temperature;humidity
80976;BME280;70437;49.466;11.002;2023-08-01T08:20:55;96848.41;;;16.23;92.69
80976;BME280;70437;49.466;11.002;2023-08-01T08:23:26;96859.06;;;16.33;91.69
80976;BME280;70437;49.466;11.002;2023-08-01T08:25:58;96869.44;;;16.26;91.48
80976;BME280;70437;49.466;11.002;2023-08-01T08:28:31;96874.25;;;16.29;91.31
80976;BME280;70437;49.466;11.002;2023-08-01T08:31:02;96875.94;;;16.25;91.29
80976;BME280;70437;49.466;11.002;2023-08-01T08:33:31;96887.56;;;16.26;91.38
80976;BME280;70437;49.466;11.002;2023-08-01T08:35:59;96891.94;;;16.22;91.49
80976;BME280;70437;49.466;11.002;2023-08-01T08:38:30;96888.13;;;16.23;90.89
80976;BME280;70437;49.466;11.002;2023-08-01T08:41:13;96893.59;;;16.17;91.20
80976;BME280;70437;49.466;11.002;2023-08-01T08:43:44;96879.94;;;16.09;91.89
80976;BME280;70437;49.466;11.002;2023-08-01T08:46:15;96878.97;;;16.00;91.70
80976;BME280;70437;49.466;11.002;2023-08-01T08:48:46;96862.53;;;15.96;92.40
80976;BME280;70437;49.466;11.002;2023-08-01T08:51:14;96817.53;;;15.86;91.88
80976;BME280;70437;49.466;11.002;2023-08-01T08:53:45;96770.06;;;15.80;91.85
80976;BME280;70437;49.466;11.002;2023-08-01T08:56:14;96758.91;;;15.68;92.20
80976;BME280;70437;49.466;11.002;2023-08-01T09:00:32;96774.13;;;15.59;92.89
80976;BME280;70437;49.466;11.002;2023-08-01T09:03:10;96774.63;;;15.61;91.98
80976;BME280;70437;49.466;11.002;2023-08-01T09:05:50;96811.31;;;15.62;91.99
80976;BME280;70437;49.466;11.002;2023-08-01T09:08:20;96802.03;;;15.73;91.00
80976;BME280;70437;49.466;11.002;2023-08-01T09:10:52;96816.22;;;15.84;90.88
80976;BME280;70437;49.466;11.002;2023-08-01T09:13:23;96818.50;;;15.96;90.32
80976;BME280;70437;49.466;11.002;2023-08-01T09:15:54;96805.16;;;16.04;89.76
80976;BME280;70437;49.466;11.002;2023-08-01T09:18:25;96814.28;;;16.08;89.47
80976;BME280;70437;49.466;11.002;2023-08-01T09:21:00;96814.22;;;16.13;89.17
80976;BME280;70437;49.466;11.002;2023-08-01T09:23:37;96823.63;;;16.16;88.94
80976;BME280;70437;49.466;11.002;2023-08-01T09:26:18;96829.72;;;16.27;88.68
80976;BME280;70437;49.466;11.002;2023-08-01T09:28:57;96835.69;;;16.42;88.71
80976;BME280;70437;49.466;11.002;2023-08-01T09:31:36;96833.66;;;16.53;87.16
80976;BME280;70437;49.466;11.002;2023-08-01T09:34:06;96841.75;;;16.53;87.39
80976;BME280;70437;49.466;11.002;2023-08-01T09:36:34;96836.13;;;16.50;87.66
80976;BME280;70437;49.466;11.002;2023-08-01T09:39:03;96833.94;;;16.71;86.60
80976;BME280;70437;49.466;11.002;2023-08-01T09:41:37;96844.97;;;16.74;86.46
80976;BME280;70437;49.466;11.002;2023-08-01T09:44:11;96838.53;;;16.89;85.26
80976;BME280;70437;49.466;11.002;2023-08-01T09:46:42;96830.78;;;17.01;84.79
80976;BME280;70437;49.466;11.002;2023-08-01T09:49:16;96833.84;;;16.95;85.00
80976;BME280;70437;49.466;11.002;2023-08-01T09:51:48;96814.78;;;16.86;84.44
80976;BME280;70437;49.466;11.002;2023-08-01T09:54:22;96830.19;;;16.85;85.02
80976;BME280;70437;49.466;11.002;2023-08-01T09:56:53;96830.19;;;16.85;85.48
80976;BME280;70437;49.466;11.002;2023-08-01T09:59:25;96824.53;;;17.01;85.22
80976;BME280;70437;49.466;11.002;2023-08-01T10:05:44;96833.06;;;17.08;84.83
80976;BME280;70437;49.466;11.002;2023-08-01T10:08:14;96812.47;;;17.39;83.21
80976;BME280;70437;49.466;11.002;2023-08-01T10:10:43;96820.41;;;17.63;82.10
80976;BME280;70437;49.466;11.002;2023-08-01T10:13:13;96817.69;;;17.63;81.66
80976;BME280;70437;49.466;11.002;2023-08-01T10:15:41;96827.94;;;17.66;81.81
80976;BME280;70437;49.466;11.002;2023-08-01T10:18:09;96823.78;;;17.74;82.08
80976;BME280;70437;49.466;11.002;2023-08-01T10:20:38;96827.69;;;17.96;81.25
80976;BME280;70437;49.466;11.002;2023-08-01T10:23:09;96824.84;;;17.73;81.36
80976;BME280;70437;49.466;11.002;2023-08-01T10:25:39;96833.88;;;17.68;81.73
80976;BME280;70437;49.466;11.002;2023-08-01T10:28:09;96818.00;;;17.62;81.79
80976;BME280;70437;49.466;11.002;2023-08-01T10:30:41;96821.84;;;17.61;81.68
80976;BME280;70437;49.466;11.002;2023-08-01T10:33:10;96831.06;;;17.60;81.71
80976;BME280;70437;49.466;11.002;2023-08-01T10:35:40;96821.84;;;17.61;81.43
80976;BME280;70437;49.466;11.002;2023-08-01T10:38:12;96822.25;;;17.68;81.09
80976;BME280;70437;49.466;11.002;2023-08-01T10:40:43;96821.56;;;17.76;81.45
80976;BME280;70437;49.466;11.002;2023-08-01T10:43:23;96833.59;;;17.84;81.05
80976;BME280;70437;49.466;11.002;2023-08-01T10:46:03;96832.59;;;17.93;80.61
80976;BME280;70437;49.466;11.002;2023-08-01T10:48:32;96824.84;;;17.73;80.92
80976;BME280;70437;49.466;11.002;2023-08-01T10:51:01;96831.47;;;17.81;81.48
80976;BME280;70437;49.466;11.002;2023-08-01T10:53:39;96816.31;;;17.93;81.21
80976;BME280;70437;49.466;11.002;2023-08-01T10:56:19;96821.16;;;17.97;81.21
80976;BME280;70437;49.466;11.002;2023-08-01T10:58:49;96818.91;;;17.99;80.97
80976;BME280;70437;49.466;11.002;2023-08-01T11:01:19;96814.38;;;18.08;80.14
80976;BME280;70437;49.466;11.002;2023-08-01T11:03:47;96818.31;;;18.02;80.61
80976;BME280;70437;49.466;11.002;2023-08-01T11:06:18;96826.75;;;18.14;80.53
80976;BME280;70437;49.466;11.002;2023-08-01T11:08:47;96817.59;;;18.24;79.76
80976;BME280;70437;49.466;11.002;2023-08-01T11:11:16;96828.78;;;18.44;78.38
80976;BME280;70437;49.466;11.002;2023-08-01T11:13:53;96836.44;;;18.65;77.63
80976;BME280;70437;49.466;11.002;2023-08-01T11:16:25;96839.50;;;18.86;76.80
80976;BME280;70437;49.466;11.002;2023-08-01T11:18:54;96835.44;;;18.97;76.31
80976;BME280;70437;49.466;11.002;2023-08-01T11:21:26;96840.38;;;18.73;77.16
80976;BME280;70437;49.466;11.002;2023-08-01T11:23:57;96833.66;;;18.56;77.44
80976;BME280;70437;49.466;11.002;2023-08-01T11:26:26;96831.91;;;18.38;77.72
80976;BME280;70437;49.466;11.002;2023-08-01T11:29:00;96827.00;;;18.40;77.40
80976;BME280;70437;49.466;11.002;2023-08-01T11:31:28;96837.09;;;18.48;76.89
80976;BME280;70437;49.466;11.002;2023-08-01T11:33:59;96833.81;;;18.37;77.00
80976;BME280;70437;49.466;11.002;2023-08-01T11:36:29;96828.78;;;18.44;76.76
80976;BME280;70437;49.466;11.002;2023-08-01T11:38:59;96819.81;;;18.58;75.35
80976;BME280;70437;49.466;11.002;2023-08-01T11:41:43;96831.97;;;18.47;76.28
80976;BME280;70437;49.466;11.002;2023-08-01T11:44:11;96829.19;;;18.38;76.65
80976;BME280;70437;49.466;11.002;2023-08-01T11:46:39;96839.75;;;18.39;76.62
80976;BME280;70437;49.466;11.002;2023-08-01T11:49:14;96859.13;;;18.33;76.56
80976;BME280;70437;49.466;11.002;2023-08-01T11:51:44;96864.72;;;18.50;76.00
80976;BME280;70437;49.466;11.002;2023-08-01T11:54:14;96864.22;;;18.48;69.67
80976;BME280;70437;49.466;11.002;2023-08-01T11:56:43;96869.78;;;18.15;68.02
80976;BME280;70437;49.466;11.002;2023-08-01T11:59:16;96881.06;;;18.09;67.50
80976;BME280;70437;49.466;11.002;2023-08-01T12:01:49;96869.13;;;17.96;68.13
80976;BME280;70437;49.466;11.002;2023-08-01T12:04:27;96873.03;;;18.04;67.54
80976;BME280;70437;49.466;11.002;2023-08-01T12:06:57;96880.66;;;17.88;68.10
80976;BME280;70437;49.466;11.002;2023-08-01T12:09:25;96868.13;;;17.92;67.25
80976;BME280;70437;49.466;11.002;2023-08-01T12:11:59;96868.19;;;18.14;67.32
80976;BME280;70437;49.466;11.002;2023-08-01T12:14:33;96862.88;;;18.73;64.74
80976;BME280;70437;49.466;11.002;2023-08-01T12:17:04;96863.69;;;19.18;62.16
80976;BME280;70437;49.466;11.002;2023-08-01T12:19:32;96869.44;;;19.71;60.27
80976;BME280;70437;49.466;11.002;2023-08-01T12:22:03;96875.41;;;20.47;59.07
80976;BME280;70437;49.466;11.002;2023-08-01T12:24:31;96872.13;;;20.67;57.98
80976;BME280;70437;49.466;11.002;2023-08-01T12:27:00;96865.44;;;21.55;55.73
80976;BME280;70437;49.466;11.002;2023-08-01T12:29:28;96867.38;;;22.02;53.48
80976;BME280;70437;49.466;11.002;2023-08-01T12:31:56;96858.47;;;22.22;52.61
80976;BME280;70437;49.466;11.002;2023-08-01T12:34:24;96863.97;;;22.13;52.04
80976;BME280;70437;49.466;11.002;2023-08-01T12:36:56;96859.72;;;21.31;54.57
80976;BME280;70437;49.466;11.002;2023-08-01T12:39:23;96868.56;;;21.36;54.39
80976;BME280;70437;49.466;11.002;2023-08-01T12:41:54;96876.41;;;20.60;55.38
80976;BME280;70437;49.466;11.002;2023-08-01T12:44:26;96868.56;;;20.84;54.67
80976;BME280;70437;49.466;11.002;2023-08-01T12:46:54;96864.59;;;20.82;53.37
80976;BME280;70437;49.466;11.002;2023-08-01T12:49:22;96870.50;;;20.92;53.66
80976;BME280;70437;49.466;11.002;2023-08-01T12:51:50;96870.19;;;20.59;54.28
80976;BME280;70437;49.466;11.002;2023-08-01T12:54:20;96860.03;;;20.42;55.42
80976;BME280;70437;49.466;11.002;2023-08-01T12:56:48;96857.34;;;19.85;56.02
80976;BME280;70437;49.466;11.002;2023-08-01T12:59:16;96855.56;;;19.50;56.86
80976;BME280;70437;49.466;11.002;2023-08-01T13:01:44;96854.03;;;19.35;57.38
80976;BME280;70437;49.466;11.002;2023-08-01T13:04:13;96856.47;;;19.14;57.61
80976;BME280;70437;49.466;11.002;2023-08-01T13:06:44;96876.44;;;18.96;58.87
80976;BME280;70437;49.466;11.002;2023-08-01T13:09:12;96883.34;;;18.79;59.51
80976;BME280;70437;49.466;11.002;2023-08-01T13:11:44;96881.53;;;18.75;59.69
80976;BME280;70437;49.466;11.002;2023-08-01T13:14:17;96868.19;;;18.64;60.66
80976;BME280;70437;49.466;11.002;2023-08-01T13:16:47;96875.97;;;18.71;60.61
80976;BME280;70437;49.466;11.002;2023-08-01T13:19:15;96879.84;;;18.65;60.93
80976;BME280;70437;49.466;11.002;2023-08-01T13:21:44;96880.75;;;18.74;61.01
80976;BME280;70437;49.466;11.002;2023-08-01T13:24:13;96870.41;;;18.76;61.32
80976;BME280;70437;49.466;11.002;2023-08-01T13:26:42;96867.28;;;19.99;58.24
80976;BME280;70437;49.466;11.002;2023-08-01T13:29:10;96862.47;;;21.13;54.18
80976;BME280;70437;49.466;11.002;2023-08-01T13:31:38;96866.19;;;22.20;50.99
80976;BME280;70437;49.466;11.002;2023-08-01T13:34:07;96869.22;;;23.11;49.24
80976;BME280;70437;49.466;11.002;2023-08-01T13:36:38;96880.53;;;22.80;50.38
80976;BME280;70437;49.466;11.002;2023-08-01T13:39:10;96889.84;;;21.43;54.38
80976;BME280;70437;49.466;11.002;2023-08-01T13:41:41;96896.53;;;20.41;57.72
80976;BME280;70437;49.466;11.002;2023-08-01T13:44:11;96908.34;;;19.88;59.29
80976;BME280;70437;49.466;11.002;2023-08-01T13:46:39;96924.25;;;19.28;61.33
80976;BME280;70437;49.466;11.002;2023-08-01T13:49:08;96929.78;;;18.78;63.01
80976;BME280;70437;49.466;11.002;2023-08-01T13:51:37;96942.44;;;18.68;64.31
80976;BME280;70437;49.466;11.002;2023-08-01T13:54:05;96948.28;;;18.34;67.57
80976;BME280;70437;49.466;11.002;2023-08-01T13:56:35;96954.19;;;17.81;71.23
80976;BME280;70437;49.466;11.002;2023-08-01T13:59:06;96952.94;;;17.08;76.60
80976;BME280;70437;49.466;11.002;2023-08-01T14:01:35;96943.06;;;16.61;80.13
80976;BME280;70437;49.466;11.002;2023-08-01T14:04:04;96930.88;;;16.39;81.02
80976;BME280;70437;49.466;11.002;2023-08-01T14:06:33;96929.13;;;16.30;82.16
80976;BME280;70437;49.466;11.002;2023-08-01T14:09:02;96936.72;;;16.47;81.36
80976;BME280;70437;49.466;11.002;2023-08-01T14:11:31;96934.44;;;16.78;79.06
80976;BME280;70437;49.466;11.002;2023-08-01T14:14:00;96942.44;;;16.88;78.30
80976;BME280;70437;49.466;11.002;2023-08-01T14:16:29;96953.31;;;17.02;78.41
80976;BME280;70437;49.466;11.002;2023-08-01T14:19:01;96942.38;;;17.26;77.73
80976;BME280;70437;49.466;11.002;2023-08-01T14:21:37;96951.44;;;17.35;77.39
80976;BME280;70437;49.466;11.002;2023-08-01T14:24:05;96948.41;;;17.55;75.47
80976;BME280;70437;49.466;11.002;2023-08-01T14:26:33;96937.97;;;17.62;75.43
80976;BME280;70437;49.466;11.002;2023-08-01T14:29:05;96950.19;;;17.79;75.29
80976;BME280;70437;49.466;11.002;2023-08-01T14:31:34;96940.78;;;17.71;75.55
80976;BME280;70437;49.466;11.002;2023-08-01T14:34:03;96944.72;;;17.65;75.43
80976;BME280;70437;49.466;11.002;2023-08-01T14:36:32;96946.78;;;17.87;75.85
80976;BME280;70437;49.466;11.002;2023-08-01T14:39:03;96951.09;;;18.02;76.36
80976;BME280;70437;49.466;11.002;2023-08-01T14:41:50;96949.09;;;18.21;74.06
80976;BME280;70437;49.466;11.002;2023-08-01T14:44:21;96942.66;;;18.58;73.31
80976;BME280;70437;49.466;11.002;2023-08-01T14:46:51;96942.22;;;18.65;72.67
80976;BME280;70437;49.466;11.002;2023-08-01T14:49:23;96950.78;;;18.58;72.35
80976;BME280;70437;49.466;11.002;2023-08-01T14:51:53;96947.97;;;18.77;70.93
80976;BME280;70437;49.466;11.002;2023-08-01T14:54:21;96945.63;;;19.43;69.09
80976;BME280;70437;49.466;11.002;2023-08-01T14:57:07;96950.56;;;19.94;65.90
80976;BME280;70437;49.466;11.002;2023-08-01T14:59:36;96950.09;;;20.32;65.10
80976;BME280;70437;49.466;11.002;2023-08-01T15:02:05;96948.97;;;20.82;63.31
80976;BME280;70437;49.466;11.002;2023-08-01T15:04:37;96945.44;;;20.73;63.66
80976;BME280;70437;49.466;11.002;2023-08-01T15:07:06;96945.78;;;21.49;61.93
80976;BME280;70437;49.466;11.002;2023-08-01T15:09:35;96948.25;;;21.89;60.67
80976;BME280;70437;49.466;11.002;2023-08-01T15:12:03;96951.16;;;21.84;59.42
80976;BME280;70437;49.466;11.002;2023-08-01T15:14:31;96953.72;;;21.80;60.89
80976;BME280;70437;49.466;11.002;2023-08-01T15:17:00;96955.22;;;22.25;59.50
80976;BME280;70437;49.466;11.002;2023-08-01T15:19:27;96948.28;;;22.27;59.34
80976;BME280;70437;49.466;11.002;2023-08-01T15:21:55;96950.41;;;22.22;58.92
80976;BME280;70437;49.466;11.002;2023-08-01T15:24:24;96956.84;;;22.55;57.18
80976;BME280;70437;49.466;11.002;2023-08-01T15:26:52;96952.91;;;22.94;55.42
80976;BME280;70437;49.466;11.002;2023-08-01T15:29:20;96959.59;;;22.47;56.22
80976;BME280;70437;49.466;11.002;2023-08-01T15:31:48;96956.97;;;22.29;57.06
80976;BME280;70437;49.466;11.002;2023-08-01T15:34:18;96953.31;;;21.52;58.63
80976;BME280;70437;49.466;11.002;2023-08-01T15:36:47;96959.38;;;21.66;57.71
80976;BME280;70437;49.466;11.002;2023-08-01T15:39:15;96955.03;;;22.30;55.27
80976;BME280;70437;49.466;11.002;2023-08-01T15:41:43;96967.03;;;22.37;56.16
80976;BME280;70437;49.466;11.002;2023-08-01T15:44:13;96966.00;;;22.04;56.54
80976;BME280;70437;49.466;11.002;2023-08-01T15:46:43;96973.94;;;21.88;57.91
80976;BME280;70437;49.466;11.002;2023-08-01T15:49:12;96965.78;;;21.70;56.19
80976;BME280;70437;49.466;11.002;2023-08-01T15:51:41;96973.72;;;22.02;55.82
80976;BME280;70437;49.466;11.002;2023-08-01T15:54:08;96967.13;;;22.50;55.59
80976;BME280;70437;49.466;11.002;2023-08-01T15:56:48;96976.38;;;22.57;54.87
80976;BME280;70437;49.466;11.002;2023-08-01T15:59:16;96975.75;;;22.81;53.51
80976;BME280;70437;49.466;11.002;2023-08-01T16:01:46;96972.28;;;22.72;53.46
80976;BME280;70437;49.466;11.002;2023-08-01T16:04:15;96963.47;;;23.38;51.78
80976;BME280;70437;49.466;11.002;2023-08-01T16:06:48;96962.00;;;22.78;51.70
80976;BME280;70437;49.466;11.002;2023-08-01T16:09:18;96964.47;;;22.62;51.42
80976;BME280;70437;49.466;11.002;2023-08-01T16:11:47;96962.75;;;23.08;50.95
80976;BME280;70437;49.466;11.002;2023-08-01T16:14:17;96966.13;;;22.84;50.27
80976;BME280;70437;49.466;11.002;2023-08-01T16:17:12;96974.88;;;22.39;49.54
80976;BME280;70437;49.466;11.002;2023-08-01T16:19:42;96966.44;;;22.23;50.17
80976;BME280;70437;49.466;11.002;2023-08-01T16:22:11;96970.56;;;22.38;49.98
80976;BME280;70437;49.466;11.002;2023-08-01T16:24:44;96975.59;;;22.57;49.30
80976;BME280;70437;49.466;11.002;2023-08-01T16:27:12;96967.94;;;22.12;49.13
80976;BME280;70437;49.466;11.002;2023-08-01T16:29:40;96969.97;;;22.24;48.55
80976;BME280;70437;49.466;11.002;2023-08-01T16:32:09;96969.88;;;22.41;48.66
80976;BME280;70437;49.466;11.002;2023-08-01T16:34:39;96965.56;;;22.40;48.20
80976;BME280;70437;49.466;11.002;2023-08-01T16:37:08;96979.00;;;22.45;48.38
80976;BME280;70437;49.466;11.002;2023-08-01T16:39:39;96990.84;;;22.11;49.05
80976;BME280;70437;49.466;11.002;2023-08-01T16:42:09;96973.31;;;21.65;50.13
80976;BME280;70437;49.466;11.002;2023-08-01T16:44:38;96983.16;;;22.04;49.49
80976;BME280;70437;49.466;11.002;2023-08-01T16:47:06;96988.94;;;22.03;49.39
80976;BME280;70437;49.466;11.002;2023-08-01T16:49:34;96977.84;;;22.25;49.47
80976;BME280;70437;49.466;11.002;2023-08-01T16:52:01;96980.97;;;22.36;48.28
80976;BME280;70437;49.466;11.002;2023-08-01T16:54:31;96980.97;;;22.74;48.60
80976;BME280;70437;49.466;11.002;2023-08-01T16:56:59;96982.22;;;22.77;47.87
80976;BME280;70437;49.466;11.002;2023-08-01T16:59:28;96975.13;;;22.55;47.92
80976;BME280;70437;49.466;11.002;2023-08-01T17:01:58;96984.25;;;22.59;48.15
80976;BME280;70437;49.466;11.002;2023-08-01T17:04:27;96980.81;;;22.70;47.57
80976;BME280;70437;49.466;11.002;2023-08-01T17:06:55;96983.94;;;22.60;47.92
80976;BME280;70437;49.466;11.002;2023-08-01T17:09:23;96988.75;;;22.25;48.00
80976;BME280;70437;49.466;11.002;2023-08-01T17:11:51;96984.00;;;22.43;48.09
80976;BME280;70437;49.466;11.002;2023-08-01T17:14:19;96991.13;;;22.65;47.82
80976;BME280;70437;49.466;11.002;2023-08-01T17:16:48;96994.47;;;21.77;49.46
80976;BME280;70437;49.466;11.002;2023-08-01T17:19:16;96992.72;;;21.37;50.15
80976;BME280;70437;49.466;11.002;2023-08-01T17:21:44;96993.81;;;21.02;51.31
80976;BME280;70437;49.466;11.002;2023-08-01T17:24:16;96997.75;;;20.69;52.30
80976;BME280;70437;49.466;11.002;2023-08-01T17:26:46;96990.34;;;20.53;52.70
80976;BME280;70437;49.466;11.002;2023-08-01T17:29:14;96997.81;;;20.47;53.11
80976;BME280;70437;49.466;11.002;2023-08-01T17:31:42;96994.09;;;20.34;53.40
80976;BME280;70437;49.466;11.002;2023-08-01T17:34:10;96998.38;;;20.27;54.31
80976;BME280;70437;49.466;11.002;2023-08-01T17:36:39;97004.88;;;20.17;54.84
80976;BME280;70437;49.466;11.002;2023-08-01T17:39:12;96999.13;;;20.10;54.92
80976;BME280;70437;49.466;11.002;2023-08-01T17:41:43;97003.06;;;20.04;55.05
80976;BME280;70437;49.466;11.002;2023-08-01T17:44:14;97018.91;;;20.02;55.12
80976;BME280;70437;49.466;11.002;2023-08-01T17:46:44;97065.19;;;19.52;58.10
80976;BME280;70437;49.466;11.002;2023-08-01T17:49:13;97070.84;;;18.64;62.48
80976;BME280;70437;49.466;11.002;2023-08-01T17:51:41;97076.63;;;18.30;64.39
80976;BME280;70437;49.466;11.002;2023-08-01T17:54:08;97083.41;;;17.81;66.55
80976;BME280;70437;49.466;11.002;2023-08-01T17:56:38;97084.06;;;17.54;68.00
80976;BME280;70437;49.466;11.002;2023-08-01T17:59:07;97093.13;;;17.63;67.96
80976;BME280;70437;49.466;11.002;2023-08-01T18:01:45;97074.88;;;17.55;67.69
80976;BME280;70437;49.466;11.002;2023-08-01T18:04:14;97079.13;;;17.42;68.19
80976;BME280;70437;49.466;11.002;2023-08-01T18:06:41;97090.75;;;17.42;68.19
80976;BME280;70437;49.466;11.002;2023-08-01T18:09:12;97091.47;;;17.48;68.21
80976;BME280;70437;49.466;11.002;2023-08-01T18:11:41;97094.03;;;17.58;67.96
80976;BME280;70437;49.466;11.002;2023-08-01T18:14:13;97109.38;;;17.63;68.02
80976;BME280;70437;49.466;11.002;2023-08-01T18:16:46;97118.03;;;17.65;67.93
80976;BME280;70437;49.466;11.002;2023-08-01T18:19:18;97114.81;;;17.63;67.81
80976;BME280;70437;49.466;11.002;2023-08-01T18:21:46;97117.50;;;17.63;68.07
80976;BME280;70437;49.466;11.002;2023-08-01T18:24:21;97120.53;;;17.42;68.67
80976;BME280;70437;49.466;11.002;2023-08-01T18:26:49;97124.19;;;17.33;68.74
80976;BME280;70437;49.466;11.002;2023-08-01T18:29:23;97134.56;;;17.26;69.52
80976;BME280;70437;49.466;11.002;2023-08-01T18:31:51;97136.28;;;17.16;69.30
80976;BME280;70437;49.466;11.002;2023-08-01T18:34:19;97139.31;;;17.15;69.49
80976;BME280;70437;49.466;11.002;2023-08-01T18:36:51;97154.28;;;17.07;69.87
80976;BME280;70437;49.466;11.002;2023-08-01T18:39:26;97168.78;;;16.92;70.30
80976;BME280;70437;49.466;11.002;2023-08-01T18:41:54;97165.19;;;16.73;70.77
80976;BME280;70437;49.466;11.002;2023-08-01T18:44:26;97169.25;;;16.71;71.07
80976;BME280;70437;49.466;11.002;2023-08-01T18:46:57;97168.53;;;16.60;71.52
80976;BME280;70437;49.466;11.002;2023-08-01T18:49:30;97175.59;;;16.56;71.73
80976;BME280;70437;49.466;11.002;2023-08-01T18:51:59;97180.03;;;16.47;72.61
80976;BME280;70437;49.466;11.002;2023-08-01T18:54:27;97180.59;;;16.43;73.11
80976;BME280;70437;49.466;11.002;2023-08-01T18:56:56;97181.72;;;16.37;74.36
80976;BME280;70437;49.466;11.002;2023-08-01T18:59:25;97182.44;;;16.19;75.20
80976;BME280;70437;49.466;11.002;2023-08-01T19:01:55;97183.34;;;16.04;76.48
80976;BME280;70437;49.466;11.002;2023-08-01T19:04:26;97188.72;;;16.09;76.39
80976;BME280;70437;49.466;11.002;2023-08-01T19:06:56;97189.81;;;16.08;76.86
80976;BME280;70437;49.466;11.002;2023-08-01T19:09:25;97180.91;;;16.03;76.60
80976;BME280;70437;49.466;11.002;2023-08-01T19:11:54;97185.34;;;15.88;76.96
80976;BME280;70437;49.466;11.002;2023-08-01T19:14:22;97178.88;;;15.84;77.37
80976;BME280;70437;49.466;11.002;2023-08-01T19:16:52;97191.91;;;15.77;78.04
80976;BME280;70437;49.466;11.002;2023-08-01T19:19:20;97188.63;;;15.80;77.78
80976;BME280;70437;49.466;11.002;2023-08-01T19:21:51;97201.13;;;15.71;77.80
80976;BME280;70437;49.466;11.002;2023-08-01T19:24:19;97201.13;;;15.71;76.39
80976;BME280;70437;49.466;11.002;2023-08-01T19:27:15;97203.22;;;15.79;76.63
80976;BME280;70437;49.466;11.002;2023-08-01T19:29:48;97207.81;;;15.79;76.10
80976;BME280;70437;49.466;11.002;2023-08-01T19:32:18;97218.84;;;15.87;75.66
80976;BME280;70437;49.466;11.002;2023-08-01T19:34:51;97225.06;;;15.88;75.71
80976;BME280;70437;49.466;11.002;2023-08-01T19:37:20;97224.53;;;15.86;75.83
80976;BME280;70437;49.466;11.002;2023-08-01T19:39:49;97224.28;;;15.82;76.11
80976;BME280;70437;49.466;11.002;2023-08-01T19:42:17;97223.75;;;15.85;75.86
80976;BME280;70437;49.466;11.002;2023-08-01T19:44:45;97222.66;;;15.86;75.84
80976;BME280;70437;49.466;11.002;2023-08-01T19:47:13;97231.00;;;15.90;75.92
80976;BME280;70437;49.466;11.002;2023-08-01T19:49:42;97240.72;;;15.91;75.63
80976;BME280;70437;49.466;11.002;2023-08-01T19:52:10;97245.03;;;15.92;75.68
80976;BME280;70437;49.466;11.002;2023-08-01T19:54:37;97248.50;;;15.98;75.59
80976;BME280;70437;49.466;11.002;2023-08-01T19:57:10;97245.72;;;16.13;75.05
80976;BME280;70437;49.466;11.002;2023-08-01T19:59:49;97230.06;;;16.10;74.48
80976;BME280;70437;49.466;11.002;2023-08-01T20:02:17;97237.53;;;16.23;73.81
80976;BME280;70437;49.466;11.002;2023-08-01T20:04:44;97232.66;;;16.20;74.05
80976;BME280;70437;49.466;11.002;2023-08-01T20:07:14;97252.69;;;16.19;74.24
80976;BME280;70437;49.466;11.002;2023-08-01T20:09:50;97263.25;;;16.15;74.08
80976;BME280;70437;49.466;11.002;2023-08-01T20:12:17;97265.91;;;16.21;73.83
80976;BME280;70437;49.466;11.002;2023-08-01T20:14:46;97258.94;;;16.14;74.05
80976;BME280;70437;49.466;11.002;2023-08-01T20:17:15;97271.94;;;16.12;74.22
80976;BME280;70437;49.466;11.002;2023-08-01T20:19:44;97262.19;;;16.11;74.38
80976;BME280;70437;49.466;11.002;2023-08-01T20:22:14;97263.59;;;16.04;74.60
80976;BME280;70437;49.466;11.002;2023-08-01T20:24:43;97262.53;;;16.00;74.74
80976;BME280;70437;49.466;11.002;2023-08-01T20:27:12;97262.50;;;16.05;73.66
80976;BME280;70437;49.466;11.002;2023-08-01T20:29:45;97260.06;;;16.08;73.78
80976;BME280;70437;49.466;11.002;2023-08-01T20:32:16;97261.16;;;16.07;73.36
80976;BME280;70437;49.466;11.002;2023-08-01T20:34:45;97272.44;;;16.14;72.97
80976;BME280;70437;49.466;11.002;2023-08-01T20:37:16;97268.13;;;16.13;72.65
80976;BME280;70437;49.466;11.002;2023-08-01T20:39:44;97276.19;;;16.18;72.18
80976;BME280;70437;49.466;11.002;2023-08-01T20:42:12;97281.06;;;16.22;72.20
80976;BME280;70437;49.466;11.002;2023-08-01T20:44:40;97286.97;;;16.24;71.93
80976;BME280;70437;49.466;11.002;2023-08-01T20:47:09;97282.41;;;16.19;71.92
80976;BME280;70437;49.466;11.002;2023-08-01T20:49:37;97303.50;;;16.17;72.07
80976;BME280;70437;49.466;11.002;2023-08-01T20:52:05;97292.66;;;16.22;72.23
80976;BME280;70437;49.466;11.002;2023-08-01T20:54:39;97300.75;;;16.27;71.66
80976;BME280;70437;49.466;11.002;2023-08-01T20:57:13;97293.97;;;16.25;71.62
80976;BME280;70437;49.466;11.002;2023-08-01T20:59:44;97296.16;;;16.23;71.40
80976;BME280;70437;49.466;11.002;2023-08-01T21:02:14;97306.75;;;16.14;71.73
80976;BME280;70437;49.466;11.002;2023-08-01T21:04:42;97294.38;;;16.08;72.30
80976;BME280;70437;49.466;11.002;2023-08-01T21:07:10;97296.00;;;16.09;72.48
80976;BME280;70437;49.466;11.002;2023-08-01T21:09:44;97300.38;;;16.00;72.85
80976;BME280;70437;49.466;11.002;2023-08-01T21:12:14;97297.69;;;15.95;73.33
80976;BME280;70437;49.466;11.002;2023-08-01T21:14:44;97295.03;;;15.84;73.75
80976;BME280;70437;49.466;11.002;2023-08-01T21:17:13;97291.50;;;15.84;74.11
80976;BME280;70437;49.466;11.002;2023-08-01T21:19:42;97293.50;;;15.68;74.86
80976;BME280;70437;49.466;11.002;2023-08-01T21:22:10;97291.34;;;15.65;75.08
80976;BME280;70437;49.466;11.002;2023-08-01T21:24:38;97293.22;;;15.64;75.52
80976;BME280;70437;49.466;11.002;2023-08-01T21:27:08;97295.38;;;15.57;75.74
80976;BME280;70437;49.466;11.002;2023-08-01T21:29:35;97279.22;;;15.52;76.40
80976;BME280;70437;49.466;11.002;2023-08-01T21:32:12;97287.59;;;15.51;76.85